Diane H — WUR7250 — position and weather

sailwx.info

Track history (hours):
 
Tides and Currents Weather Stations Pressure Air Temp Water Temp Dewpoint Dewpoint Depression Visibility Wind Speed Wind Dir Waves Ship Positions

Diane H

Owner: BOYER TOWING INC, KETCHIKAN, AK. More information available from US FCC via Universal Licensing System and Coast Guard Vessel Documentation Center.

Last reported at 2014-Dec-19 21:33 UTC. Time now 2014-Dec-22 23:28 UTC.
Position N 47°34' W 122°21'.

Type: Towing. MMSI: 366673090.

Date/timePositionNaut miles runAvg speedWind from/ knotsBaromVisibWave heightAir tempDewpointWater temp
2014-Dec-19 21:33N 47°34' W 122°21'6 5.8
2014-Dec-19 20:33N 47°39' W 122°26'6 5.8
2014-Dec-19 19:33N 47°44' W 122°26'6 5.5
2014-Dec-19 18:33N 47°49' W 122°29'6 6.1
2014-Dec-19 17:33N 47°55' W 122°32'3 3.3
2014-Dec-19 16:33N 47°54' W 122°36'7 6.9
2014-Dec-19 15:33N 47°48' W 122°42'2 2.1
2014-Dec-19 14:33N 47°46' W 122°43'0 0.0
2014-Dec-19 13:33N 47°46' W 122°43'0 0.0
2014-Dec-19 12:33N 47°46' W 122°43'0 0.0
2014-Dec-19 11:33N 47°46' W 122°43'0 0.0
2014-Dec-19 10:33N 47°46' W 122°43'0 0.0
2014-Dec-19 09:33N 47°46' W 122°43'0 0.0
2014-Dec-19 08:33N 47°46' W 122°43'0 0.0
2014-Dec-19 07:33N 47°46' W 122°43'0 0.0
2014-Dec-19 06:33N 47°46' W 122°43'0 0.0
2014-Dec-19 05:33N 47°46' W 122°43'5 4.1
2014-Dec-19 04:27N 47°50' W 122°40'4 4.5
2014-Dec-19 03:29N 47°54' W 122°36'3 3.5
2014-Dec-19 02:31N 47°57' W 122°37'6 6.1
2014-Dec-19 01:33N 47°53' W 122°30'6 6.4
2014-Dec-19 00:33N 47°47' W 122°28'6 6.2
2014-Dec-18 23:33N 47°41' W 122°29'6 5.9
2014-Dec-18 22:33N 47°35' W 122°28'6 5.6
2014-Dec-18 21:33N 47°30' W 122°30'5 5.4
2014-Dec-18 20:33N 47°24' W 122°32'5 5.1
2014-Dec-18 19:33N 47°19' W 122°30'5 4.9
2014-Dec-18 18:27N 47°16' W 122°24'1 0.8
2014-Dec-18 17:32N 47°17' W 122°24'1 1.3
2014-Dec-18 16:33N 47°17' W 122°26'8 8.3
2014-Dec-18 15:33N 47°25' W 122°24'1010.1
2014-Dec-18 14:33N 47°36' W 122°24'  
2014-Dec-16 00:16N 47°32' W 122°20'4 6.4
2014-Dec-15 23:33N 47°36' W 122°24'9 9.1
2014-Dec-15 22:34N 47°27' W 122°23'8 8.0
2014-Dec-15 21:33N 47°19' W 122°26'4 0.7
2014-Dec-15 15:32N 47°16' W 122°22'2 2.3
2014-Dec-15 14:33N 47°17' W 122°25'3 3.0
2014-Dec-15 13:34N 47°20' W 122°28'5 5.5
2014-Dec-15 12:33N 47°23' W 122°22'6 5.6
2014-Dec-15 11:33N 47°29' W 122°26'6 5.5
2014-Dec-15 10:34N 47°34' W 122°27'4 3.8
2014-Dec-15 09:34N 47°35' W 122°22'3 3.4
2014-Dec-15 08:33N 47°32' W 122°20'0 0.1
2014-Dec-15 07:34N 47°32' W 122°20'  
Track history (hours):
 
Tides and Currents Weather Stations Pressure Air Temp Water Temp Dewpoint Dewpoint Depression Visibility Wind Speed Wind Dir Waves Ship Positions

Diane H

Owner: BOYER TOWING INC, KETCHIKAN, AK. More information available from US FCC via Universal Licensing System and Coast Guard Vessel Documentation Center.

Last reported at 2014-Dec-19 21:33 UTC. Time now 2014-Dec-22 23:28 UTC.
Position N 47°34' W 122°21'.

Type: Towing. MMSI: 366673090.

Date/timePositionNaut miles runAvg speedWind from/ knotsBaromVisibWave heightAir tempDewpointWater temp
2014-Dec-19 21:33N 47°34' W 122°21'6 5.8
2014-Dec-19 20:33N 47°39' W 122°26'6 5.8
2014-Dec-19 19:33N 47°44' W 122°26'6 5.5
2014-Dec-19 18:33N 47°49' W 122°29'6 6.1
2014-Dec-19 17:33N 47°55' W 122°32'3 3.3
2014-Dec-19 16:33N 47°54' W 122°36'7 6.9
2014-Dec-19 15:33N 47°48' W 122°42'2 2.1
2014-Dec-19 14:33N 47°46' W 122°43'0 0.0
2014-Dec-19 13:33N 47°46' W 122°43'0 0.0
2014-Dec-19 12:33N 47°46' W 122°43'0 0.0
2014-Dec-19 11:33N 47°46' W 122°43'0 0.0
2014-Dec-19 10:33N 47°46' W 122°43'0 0.0
2014-Dec-19 09:33N 47°46' W 122°43'0 0.0
2014-Dec-19 08:33N 47°46' W 122°43'0 0.0
2014-Dec-19 07:33N 47°46' W 122°43'0 0.0
2014-Dec-19 06:33N 47°46' W 122°43'0 0.0
2014-Dec-19 05:33N 47°46' W 122°43'5 4.1
2014-Dec-19 04:27N 47°50' W 122°40'4 4.5
2014-Dec-19 03:29N 47°54' W 122°36'3 3.5
2014-Dec-19 02:31N 47°57' W 122°37'6 6.1
2014-Dec-19 01:33N 47°53' W 122°30'6 6.4
2014-Dec-19 00:33N 47°47' W 122°28'6 6.2
2014-Dec-18 23:33N 47°41' W 122°29'6 5.9
2014-Dec-18 22:33N 47°35' W 122°28'6 5.6
2014-Dec-18 21:33N 47°30' W 122°30'5 5.4
2014-Dec-18 20:33N 47°24' W 122°32'5 5.1
2014-Dec-18 19:33N 47°19' W 122°30'5 4.9
2014-Dec-18 18:27N 47°16' W 122°24'1 0.8
2014-Dec-18 17:32N 47°17' W 122°24'1 1.3
2014-Dec-18 16:33N 47°17' W 122°26'8 8.3
2014-Dec-18 15:33N 47°25' W 122°24'1010.1
2014-Dec-18 14:33N 47°36' W 122°24'  
2014-Dec-16 00:16N 47°32' W 122°20'4 6.4
2014-Dec-15 23:33N 47°36' W 122°24'9 9.1
2014-Dec-15 22:34N 47°27' W 122°23'8 8.0
2014-Dec-15 21:33N 47°19' W 122°26'4 0.7
2014-Dec-15 15:32N 47°16' W 122°22'2 2.3
2014-Dec-15 14:33N 47°17' W 122°25'3 3.0
2014-Dec-15 13:34N 47°20' W 122°28'5 5.5
2014-Dec-15 12:33N 47°23' W 122°22'6 5.6
2014-Dec-15 11:33N 47°29' W 122°26'6 5.5
2014-Dec-15 10:34N 47°34' W 122°27'4 3.8
2014-Dec-15 09:34N 47°35' W 122°22'3 3.4
2014-Dec-15 08:33N 47°32' W 122°20'0 0.1
2014-Dec-15 07:34N 47°32' W 122°20'  

Dump ship's entire track history